Terminal Aerodrome Forecast
Issued by NWS Cleveland, OH

Home | Current Version | Previous Version | Graphics & Text | Print | Product List | Glossary On
Versions: 1 2 3 4 5 6 7 8 9 10 11 12 13 14 15 16
000
FTUS41 KCLE 161100
TAFERI
TAF
KERI 161120Z 1612/1712 VRB03KT P6SM SKC
     FM161400 22004KT P6SM SCT050
     FM161800 04012KT P6SM SCT250
     FM170200 10006KT P6SM BKN250
     FM171000 15012KT P6SM BKN250=

USA.gov is the U.S. government's official web portal to all federal, state and local government web resources and services.